createdAt,value
2018-11-10T00:01:37.740Z,266.23
2018-11-10T00:03:39.734Z,263.73
2018-11-10T00:05:41.745Z,266.38
2018-11-10T00:07:43.727Z,260.17
2018-11-10T00:09:45.733Z,247.37
2018-11-10T00:11:47.720Z,252.93
2018-11-10T00:13:49.724Z,254.07
2018-11-10T00:15:51.712Z,246.07
2018-11-10T00:17:53.692Z,247.95
2018-11-10T00:19:55.697Z,251.30
2018-11-10T00:21:57.762Z,245.57
2018-11-10T00:23:59.774Z,241.53
2018-11-10T00:26:01.758Z,236.18
2018-11-10T00:28:03.762Z,233.28
2018-11-10T00:30:05.763Z,246.28
2018-11-10T00:32:07.732Z,240.75
2018-11-10T00:34:09.735Z,240.65
2018-11-10T00:36:11.712Z,240.55
2018-11-10T00:38:13.965Z,237.70
2018-11-10T00:40:15.972Z,236.20
2018-11-10T00:42:17.957Z,220.95
2018-11-10T00:44:19.952Z,232.80
2018-11-10T00:46:21.958Z,223.72
2018-11-10T00:48:23.927Z,231.15
2018-11-10T00:50:25.936Z,230.65
2018-11-10T00:52:27.923Z,218.97
2018-11-10T00:54:29.929Z,222.05
2018-11-10T00:56:31.914Z,215.20
2018-11-10T00:58:33.891Z,220.45
2018-11-10T01:00:35.897Z,219.40
2018-11-10T01:02:37.875Z,217.07
2018-11-10T01:04:39.878Z,214.57
2018-11-10T01:06:41.884Z,207.40
2018-11-10T01:08:43.882Z,205.75
2018-11-10T01:10:45.873Z,214.17
2018-11-10T01:12:47.878Z,203.32
2018-11-10T01:14:49.913Z,211.90
2018-11-10T01:16:51.881Z,205.52
2018-11-10T01:18:53.889Z,209.30
2018-11-10T01:20:55.834Z,196.85
2018-11-10T01:22:57.822Z,202.60
2018-11-10T01:24:59.846Z,197.65
2018-11-10T01:27:01.843Z,194.35
2018-11-10T01:29:03.832Z,190.47
2018-11-10T01:31:05.855Z,189.90
2018-11-10T01:33:07.845Z,199.55
2018-11-10T01:35:09.837Z,188.67
2018-11-10T01:37:11.893Z,196.47
2018-11-10T01:39:13.879Z,188.70
2018-11-10T01:41:15.859Z,186.92
2018-11-10T01:43:17.859Z,184.90
2018-11-10T01:45:19.858Z,186.52
2018-11-10T01:47:21.889Z,178.60
2018-11-10T01:49:23.870Z,183.03
2018-11-10T01:51:25.853Z,174.23
2018-11-10T01:53:27.863Z,185.10
2018-11-10T01:55:29.875Z,173.97
2018-11-10T01:57:31.851Z,171.95
2018-11-10T01:59:33.843Z,172.37
2018-11-10T02:01:35.840Z,170.30
2018-11-10T02:03:38.257Z,170.43
2018-11-10T02:05:40.213Z,160.65
2018-11-10T02:07:42.200Z,166.00
2018-11-10T02:09:44.184Z,164.85
2018-11-10T02:11:46.180Z,160.93
2018-11-10T02:13:48.207Z,163.57
2018-11-10T02:15:50.155Z,152.50
2018-11-10T02:17:52.165Z,166.70
2018-11-10T02:19:54.144Z,158.35
2018-11-10T02:21:56.132Z,158.85
2018-11-10T02:23:58.150Z,152.72
2018-11-10T02:26:00.166Z,155.37
2018-11-10T02:28:02.169Z,154.10
2018-11-10T02:30:04.161Z,149.55
2018-11-10T02:32:06.200Z,153.12
2018-11-10T02:34:08.191Z,149.15
2018-11-10T02:36:10.265Z,153.38
2018-11-10T02:38:12.246Z,154.50
2018-11-10T02:40:14.246Z,148.30
2018-11-10T02:42:16.233Z,147.22
2018-11-10T02:44:18.217Z,149.07
2018-11-10T02:46:20.210Z,145.30
2018-11-10T02:48:22.181Z,138.70
2018-11-10T02:50:24.238Z,143.15
2018-11-10T02:52:26.218Z,140.68
2018-11-10T02:54:28.219Z,148.90
2018-11-10T02:56:30.207Z,144.02
2018-11-10T02:58:32.193Z,140.37
2018-11-10T03:00:34.243Z,138.07
2018-11-10T03:02:36.226Z,137.28
2018-11-10T03:04:38.243Z,136.37
2018-11-10T03:06:41.249Z,131.63
2018-11-10T03:08:43.217Z,138.57
2018-11-10T03:10:45.229Z,138.95
2018-11-10T03:12:47.213Z,133.70
2018-11-10T03:14:49.194Z,135.95
2018-11-10T03:16:51.192Z,131.60
2018-11-10T03:18:53.211Z,136.62
2018-11-10T03:20:55.186Z,126.35
2018-11-10T03:22:57.194Z,129.07
2018-11-10T03:24:59.190Z,124.00
2018-11-10T03:27:01.175Z,126.70
2018-11-10T03:29:03.195Z,128.05
2018-11-10T03:31:05.219Z,125.00
2018-11-10T03:33:07.209Z,122.85
2018-11-10T03:35:09.214Z,118.45
2018-11-10T03:37:11.213Z,127.30
2018-11-10T03:39:13.221Z,118.53
2018-11-10T03:41:15.202Z,121.05
2018-11-10T03:43:17.189Z,112.30
2018-11-10T03:45:19.191Z,116.85
2018-11-10T03:47:21.254Z,114.17
2018-11-10T03:49:23.190Z,117.50
2018-11-10T03:51:25.207Z,117.80
2018-11-10T03:53:27.203Z,113.10
2018-11-10T03:55:29.206Z,112.87
2018-11-10T03:57:31.204Z,111.47
2018-11-10T03:59:33.193Z,115.90
2018-11-10T04:01:35.204Z,110.50
2018-11-10T04:03:37.172Z,110.45
2018-11-10T04:05:39.167Z,111.88
2018-11-10T04:07:41.185Z,114.52
2018-11-10T04:09:43.161Z,111.77
2018-11-10T04:11:45.155Z,111.20
2018-11-10T04:13:47.138Z,106.20
2018-11-10T04:15:49.111Z,109.83
2018-11-10T04:17:51.113Z,106.40
2018-11-10T04:19:53.085Z,99.42
2018-11-10T04:21:55.091Z,104.63
2018-11-10T04:23:57.085Z,106.80
2018-11-10T04:25:59.078Z,104.45
2018-11-10T04:28:01.075Z,98.55
2018-11-10T04:30:03.065Z,103.02
2018-11-10T04:32:05.064Z,108.27
2018-11-10T04:34:07.071Z,104.38
2018-11-10T04:36:09.072Z,111.40
2018-11-10T04:38:11.081Z,94.95
2018-11-10T04:40:13.094Z,98.40
2018-11-10T04:42:15.094Z,119.35
2018-11-10T04:44:17.092Z,246.77
2018-11-10T04:46:19.085Z,334.73
2018-11-10T04:48:21.099Z,383.90
2018-11-10T04:50:23.114Z,389.70
2018-11-10T04:52:25.098Z,405.37
2018-11-10T04:54:27.104Z,383.05
2018-11-10T04:56:29.090Z,389.03
2018-11-10T04:58:31.096Z,348.75
2018-11-10T05:00:33.080Z,262.75
2018-11-10T05:02:35.060Z,235.70
2018-11-10T05:04:37.078Z,231.33
2018-11-10T05:06:39.138Z,233.97
2018-11-10T05:08:41.142Z,223.80
2018-11-10T05:10:43.120Z,256.47
2018-11-10T05:12:45.172Z,211.97
2018-11-10T05:14:47.174Z,188.45
2018-11-10T05:16:49.164Z,204.45
2018-11-10T05:18:51.162Z,173.05
2018-11-10T05:20:53.148Z,169.57
2018-11-10T05:22:55.156Z,185.45
2018-11-10T05:24:57.142Z,202.82
2018-11-10T05:26:59.156Z,284.62
2018-11-10T05:29:01.157Z,299.58
2018-11-10T05:31:03.265Z,279.25
2018-11-10T05:33:05.425Z,311.40
2018-11-10T05:35:07.493Z,251.85
2018-11-10T05:37:09.484Z,254.00
2018-11-10T05:39:11.562Z,241.82
2018-11-10T05:41:13.566Z,252.97
2018-11-10T05:43:15.556Z,251.32
2018-11-10T05:45:17.552Z,184.28
2018-11-10T05:47:19.565Z,204.10
2018-11-10T05:49:21.542Z,217.40
2018-11-10T05:51:23.571Z,215.45
2018-11-10T05:53:25.619Z,228.22
2018-11-10T05:55:27.624Z,230.18
2018-11-10T05:57:29.685Z,312.75
2018-11-10T05:59:31.674Z,343.40
2018-11-10T06:01:33.672Z,310.95
2018-11-10T06:03:35.669Z,365.35
2018-11-10T06:05:37.653Z,349.25
2018-11-10T06:07:39.674Z,314.57
2018-11-10T06:09:41.747Z,306.35
2018-11-10T06:11:43.694Z,308.10
2018-11-10T06:13:45.718Z,297.05
2018-11-10T06:15:47.692Z,303.02
2018-11-10T06:17:49.706Z,289.25
2018-11-10T06:19:51.708Z,282.15
2018-11-10T06:21:53.780Z,281.60
2018-11-10T06:23:55.764Z,275.20
2018-11-10T06:25:57.816Z,270.50
2018-11-10T06:27:59.754Z,258.63
2018-11-10T06:30:01.739Z,271.77
2018-11-10T06:32:03.782Z,262.72
2018-11-10T06:34:05.834Z,267.05
2018-11-10T06:36:08.039Z,442.72
2018-11-10T06:38:10.060Z,289.95
2018-11-10T06:40:12.458Z,350.45
2018-11-10T06:42:14.453Z,361.82
2018-11-10T06:44:16.436Z,373.43
2018-11-10T06:46:18.463Z,363.05
2018-11-10T06:48:20.466Z,368.55
2018-11-10T06:50:22.435Z,361.80
2018-11-10T06:52:24.438Z,341.33
2018-11-10T06:54:26.494Z,332.70
2018-11-10T06:56:28.511Z,316.82
2018-11-10T06:58:30.522Z,324.07
2018-11-10T07:00:32.510Z,331.98
2018-11-10T07:02:34.534Z,322.77
2018-11-10T07:04:36.520Z,307.67
2018-11-10T07:06:38.511Z,317.95
2018-11-10T07:08:40.529Z,311.82
2018-11-10T07:10:42.528Z,338.18
2018-11-10T07:12:44.515Z,348.23
2018-11-10T07:14:46.495Z,353.23
2018-11-10T07:16:48.492Z,404.20
2018-11-10T07:18:50.479Z,391.30
2018-11-10T07:20:52.493Z,385.60
2018-11-10T07:22:54.490Z,379.18
2018-11-10T07:24:56.587Z,354.20
2018-11-10T07:26:58.792Z,365.43
2018-11-10T07:29:01.730Z,356.23
2018-11-10T07:31:03.709Z,351.18
2018-11-10T07:33:05.706Z,342.85
2018-11-10T07:35:07.687Z,332.02
2018-11-10T07:37:09.709Z,338.02
2018-11-10T07:39:11.682Z,339.15
2018-11-10T07:41:13.683Z,332.30
2018-11-10T07:43:15.706Z,314.90
2018-11-10T07:45:17.680Z,306.63
2018-11-10T07:47:19.672Z,307.43
2018-11-10T07:49:21.733Z,304.25
2018-11-10T07:51:24.208Z,295.70
2018-11-10T07:53:26.126Z,303.70
2018-11-10T07:55:28.117Z,285.30
2018-11-10T07:57:30.112Z,289.98
2018-11-10T07:59:32.108Z,292.27
2018-11-10T08:01:34.086Z,279.13
2018-11-10T08:03:36.074Z,279.02
2018-11-10T08:05:38.057Z,270.45
2018-11-10T08:07:40.059Z,266.75
2018-11-10T08:09:42.052Z,266.52
2018-11-10T08:11:44.089Z,272.35
2018-11-10T08:13:46.318Z,258.30
2018-11-10T08:15:48.291Z,261.85
2018-11-10T08:17:50.276Z,253.88
2018-11-10T08:19:52.284Z,247.22
2018-11-10T08:21:54.288Z,248.40
2018-11-10T08:23:56.304Z,247.42
2018-11-10T08:25:58.275Z,250.20
2018-11-10T08:28:00.295Z,245.73
2018-11-10T08:30:02.333Z,235.75
2018-11-10T08:32:04.332Z,235.00
2018-11-10T08:34:06.340Z,228.92
2018-11-10T08:36:08.315Z,232.87
2018-11-10T08:38:10.315Z,225.78
2018-11-10T08:40:12.287Z,217.90
2018-11-10T08:42:14.327Z,222.48
2018-11-10T08:44:16.318Z,225.47
2018-11-10T08:46:18.337Z,219.28
2018-11-10T08:48:20.352Z,214.32
2018-11-10T08:50:22.329Z,205.50
2018-11-10T08:52:24.462Z,208.72
2018-11-10T08:54:26.459Z,211.87
2018-11-10T08:56:28.460Z,203.70
2018-11-10T08:58:30.447Z,203.00
2018-11-10T09:00:32.496Z,81.42
2018-11-10T09:02:34.491Z,261.45
2018-11-10T09:04:36.485Z,402.82
2018-11-10T09:06:38.509Z,335.52
2018-11-10T09:08:40.487Z,255.70
2018-11-10T09:10:42.487Z,245.45
2018-11-10T09:12:44.511Z,214.45
2018-11-10T09:14:46.489Z,202.87
2018-11-10T09:16:48.505Z,199.47
2018-11-10T09:18:50.494Z,194.10
2018-11-10T09:20:52.489Z,188.27
2018-11-10T09:22:54.505Z,187.77
2018-11-10T09:24:56.600Z,185.52
2018-11-10T09:26:58.597Z,176.75
2018-11-10T09:29:00.593Z,180.15
2018-11-10T09:31:02.630Z,175.65
2018-11-10T09:33:04.883Z,169.13
2018-11-10T09:35:06.874Z,184.67
2018-11-10T09:37:08.863Z,167.15
2018-11-10T09:39:10.862Z,167.65
2018-11-10T09:41:12.857Z,162.05
2018-11-10T09:43:14.850Z,158.50
2018-11-10T09:45:16.850Z,162.50
2018-11-10T09:47:18.836Z,160.75
2018-11-10T09:49:20.869Z,153.32
2018-11-10T09:51:22.889Z,148.78
2018-11-10T09:53:24.867Z,148.22
2018-11-10T09:55:26.869Z,150.47
2018-11-10T09:57:28.869Z,144.28
2018-11-10T09:59:30.876Z,376.55
2018-11-10T10:01:33.015Z,391.50
2018-11-10T10:03:34.884Z,208.70
2018-11-10T10:05:36.923Z,248.93
2018-11-10T10:07:38.918Z,283.23
2018-11-10T10:09:40.881Z,414.20
2018-11-10T10:11:42.862Z,309.00
2018-11-10T10:13:44.864Z,386.85
2018-11-10T10:15:46.897Z,373.98
2018-11-10T10:17:48.915Z,395.82
2018-11-10T10:19:50.882Z,405.85
2018-11-10T10:21:52.864Z,409.52
2018-11-10T10:23:55.107Z,418.43
2018-11-10T10:25:57.119Z,401.40
2018-11-10T10:27:59.097Z,741.75
2018-11-10T10:30:01.116Z,475.98
2018-11-10T10:32:03.110Z,447.20
2018-11-10T10:34:05.227Z,456.27
2018-11-10T10:36:07.202Z,453.20
2018-11-10T10:38:09.701Z,454.15
2018-11-10T10:40:11.685Z,454.35
2018-11-10T10:42:13.675Z,453.32
2018-11-10T10:44:15.683Z,452.47
2018-11-10T10:46:17.675Z,448.67
2018-11-10T10:48:19.708Z,464.87
2018-11-10T10:50:21.713Z,483.70
2018-11-10T10:52:23.694Z,511.08
2018-11-10T10:54:25.717Z,537.23
2018-11-10T10:56:27.781Z,490.05
2018-11-10T10:58:30.093Z,480.35
2018-11-10T11:00:32.150Z,466.57
2018-11-10T11:02:34.127Z,462.18
2018-11-10T11:04:36.106Z,460.45
2018-11-10T11:06:38.120Z,479.07
2018-11-10T11:08:40.150Z,499.52
2018-11-10T11:10:42.150Z,492.00
2018-11-10T11:12:44.159Z,501.52
2018-11-10T11:14:46.156Z,492.98
2018-11-10T11:16:48.171Z,343.15
2018-11-10T11:18:50.148Z,153.82
2018-11-10T11:20:52.157Z,88.65
2018-11-10T11:22:54.164Z,53.58
2018-11-10T11:24:56.154Z,272.33
2018-11-10T11:26:58.158Z,414.55
2018-11-10T11:29:00.231Z,180.97
2018-11-10T11:31:02.240Z,104.83
2018-11-10T11:33:04.209Z,68.72
2018-11-10T11:35:06.188Z,55.73
2018-11-10T11:37:08.237Z,39.70
2018-11-10T11:39:10.328Z,46.60
2018-11-10T11:41:12.612Z,71.50
2018-11-10T11:43:14.594Z,232.12
2018-11-10T11:45:16.597Z,226.75
2018-11-10T11:47:18.560Z,618.30
2018-11-10T11:49:20.571Z,953.90
2018-11-10T11:51:22.574Z,483.53
2018-11-10T11:53:24.569Z,426.77
2018-11-10T11:55:26.591Z,405.30
2018-11-10T11:57:28.599Z,421.07
2018-11-10T11:59:30.600Z,416.70
2018-11-10T12:01:32.605Z,409.05
2018-11-10T12:03:34.616Z,409.05
2018-11-10T12:05:36.589Z,413.33
2018-11-10T12:07:38.585Z,412.48
2018-11-10T12:09:40.586Z,402.47
2018-11-10T12:11:42.564Z,398.73
2018-11-10T12:13:44.543Z,396.00
2018-11-10T12:15:46.546Z,383.98
2018-11-10T12:17:48.524Z,390.75
2018-11-10T12:19:50.536Z,388.73
2018-11-10T12:21:52.585Z,373.82
2018-11-10T12:23:54.561Z,376.65
2018-11-10T12:25:56.575Z,379.82
2018-11-10T12:27:58.554Z,355.12
2018-11-10T12:30:00.548Z,368.80
2018-11-10T12:32:02.593Z,357.83
2018-11-10T12:34:04.538Z,365.00
2018-11-10T12:36:06.545Z,350.43
2018-11-10T12:38:08.557Z,350.65
2018-11-10T12:40:10.539Z,348.93
2018-11-10T12:42:12.548Z,338.87
2018-11-10T12:44:14.541Z,329.38
2018-11-10T12:46:16.582Z,332.10
2018-11-10T12:48:18.574Z,324.85
2018-11-10T12:50:20.584Z,332.12
2018-11-10T12:52:22.634Z,325.07
2018-11-10T12:54:24.572Z,319.82
2018-11-10T12:56:26.556Z,319.02
2018-11-10T12:58:28.540Z,315.32
2018-11-10T13:00:30.553Z,304.13
2018-11-10T13:02:32.839Z,299.73
2018-11-10T13:04:34.822Z,305.40
2018-11-10T13:06:36.836Z,295.30
2018-11-10T13:08:38.816Z,293.05
2018-11-10T13:10:40.843Z,285.48
2018-11-10T13:12:42.818Z,280.50
2018-11-10T13:14:44.816Z,289.27
2018-11-10T13:16:46.800Z,276.65
2018-11-10T13:18:48.805Z,281.80
2018-11-10T13:20:50.825Z,276.73
2018-11-10T13:22:52.781Z,280.00
2018-11-10T13:24:54.781Z,269.43
2018-11-10T13:26:56.790Z,271.77
2018-11-10T13:28:58.846Z,270.20
2018-11-10T13:31:00.999Z,267.65
2018-11-10T13:33:03.132Z,254.68
2018-11-10T13:35:05.112Z,253.70
2018-11-10T13:37:07.083Z,258.90
2018-11-10T13:39:09.130Z,251.98
2018-11-10T13:41:11.081Z,253.67
2018-11-10T13:43:13.145Z,242.37
2018-11-10T13:45:15.073Z,248.90
2018-11-10T13:47:17.063Z,250.93
2018-11-10T13:49:19.279Z,232.70
2018-11-10T13:51:21.425Z,234.70
2018-11-10T13:53:23.972Z,239.08
2018-11-10T13:55:25.955Z,230.85
2018-11-10T13:57:27.947Z,231.35
2018-11-10T13:59:30.013Z,230.75
2018-11-10T14:01:31.952Z,129.23
2018-11-10T14:03:33.965Z,60.25
2018-11-10T14:05:36.076Z,28.75
2018-11-10T14:07:38.242Z,26.82
2018-11-10T14:09:40.503Z,23.87
2018-11-10T14:11:42.504Z,22.73
2018-11-10T14:13:44.485Z,19.40
2018-11-10T14:15:46.491Z,19.20
2018-11-10T14:17:48.492Z,22.70
2018-11-10T14:19:50.472Z,27.93
2018-11-10T14:21:52.471Z,24.10
2018-11-10T14:23:54.494Z,77.23
2018-11-10T14:25:56.478Z,115.00
2018-11-10T14:27:58.815Z,135.00
2018-11-10T14:30:00.815Z,296.23
2018-11-10T14:32:02.809Z,110.05
2018-11-10T14:34:04.817Z,53.42
2018-11-10T14:36:06.803Z,43.55
2018-11-10T14:38:08.784Z,35.83
2018-11-10T14:40:10.779Z,31.73
2018-11-10T14:42:12.793Z,99.47
2018-11-10T14:44:14.940Z,101.22
2018-11-10T14:46:16.780Z,207.90
2018-11-10T14:48:18.833Z,270.02
2018-11-10T14:50:20.806Z,402.67
2018-11-10T14:52:22.860Z,343.30
2018-11-10T14:54:24.821Z,308.45
2018-11-10T14:56:26.809Z,301.98
2018-11-10T14:58:28.849Z,270.12
2018-11-10T15:00:30.817Z,258.98
2018-11-10T15:02:32.795Z,225.75
2018-11-10T15:04:34.846Z,206.72
2018-11-10T15:06:36.839Z,204.60
2018-11-10T15:08:38.854Z,163.03
2018-11-10T15:10:40.863Z,171.68
2018-11-10T15:12:42.841Z,176.97
2018-11-10T15:14:44.835Z,168.05
2018-11-10T15:16:46.829Z,164.28
2018-11-10T15:18:48.839Z,161.10
2018-11-10T15:20:50.854Z,151.02
2018-11-10T15:22:52.908Z,405.83
2018-11-10T15:24:54.906Z,343.42
2018-11-10T15:26:56.916Z,302.18
2018-11-10T15:28:59.026Z,342.77
2018-11-10T15:31:01.214Z,390.87
2018-11-10T15:33:03.200Z,360.50
2018-11-10T15:35:05.179Z,352.68
2018-11-10T15:37:07.181Z,393.07
2018-11-10T15:39:09.242Z,368.60
2018-11-10T15:41:11.227Z,389.12
2018-11-10T15:43:13.299Z,397.07
2018-11-10T15:45:15.276Z,381.63
2018-11-10T15:47:17.332Z,336.70
2018-11-10T15:49:19.306Z,360.93
2018-11-10T15:51:21.316Z,353.10
2018-11-10T15:53:23.408Z,348.62
2018-11-10T15:55:25.394Z,343.80
2018-11-10T15:57:27.427Z,332.60
2018-11-10T15:59:29.456Z,321.02
2018-11-10T16:01:31.474Z,330.15
2018-11-10T16:03:33.477Z,320.97
2018-11-10T16:05:35.483Z,307.67
2018-11-10T16:07:37.482Z,307.43
2018-11-10T16:09:39.515Z,296.98
2018-11-10T16:11:41.551Z,325.18
2018-11-10T16:13:43.553Z,381.45
2018-11-10T16:15:45.556Z,388.65
2018-11-10T16:17:47.557Z,453.52
2018-11-10T16:19:49.565Z,578.88
2018-11-10T16:21:51.558Z,629.40
2018-11-10T16:23:53.633Z,562.30
2018-11-10T16:25:55.627Z,518.40
2018-11-10T16:27:57.620Z,502.73
2018-11-10T16:29:59.617Z,484.40
2018-11-10T16:32:01.613Z,442.20
2018-11-10T16:34:03.620Z,447.63
2018-11-10T16:36:05.634Z,455.13
2018-11-10T16:38:07.638Z,500.98
2018-11-10T16:40:09.692Z,529.67
2018-11-10T16:42:11.715Z,500.20
2018-11-10T16:44:13.731Z,507.75
2018-11-10T16:46:15.735Z,458.77
2018-11-10T16:48:17.738Z,485.52
2018-11-10T16:50:19.748Z,477.62
2018-11-10T16:52:21.721Z,491.00
2018-11-10T16:54:24.043Z,530.48
2018-11-10T16:56:26.037Z,541.42
2018-11-10T16:58:28.155Z,575.98
2018-11-10T17:00:30.118Z,614.15
2018-11-10T17:02:32.158Z,621.60
2018-11-10T17:04:34.158Z,712.45
2018-11-10T17:06:36.135Z,689.45
2018-11-10T17:08:38.229Z,862.75
2018-11-10T17:10:40.167Z,774.70
2018-11-10T17:12:42.196Z,821.35
2018-11-10T17:14:44.183Z,708.72
2018-11-10T17:16:46.162Z,701.05
2018-11-10T17:18:48.232Z,679.70
2018-11-10T17:20:50.223Z,675.02
2018-11-10T17:22:52.187Z,666.00
2018-11-10T17:24:54.198Z,677.90
2018-11-10T17:26:56.169Z,879.23
2018-11-10T17:28:58.190Z,729.45
2018-11-10T17:31:00.189Z,716.65
2018-11-10T17:33:02.201Z,825.00
2018-11-10T17:35:04.252Z,853.82
2018-11-10T17:37:06.245Z,827.10
2018-11-10T17:39:08.250Z,1037.33
2018-11-10T17:41:10.240Z,978.60
2018-11-10T17:43:12.205Z,1173.60
2018-11-10T17:45:14.203Z,1098.85
2018-11-10T17:47:16.218Z,1130.28
2018-11-10T17:49:18.226Z,1087.85
2018-11-10T17:51:20.272Z,1077.15
2018-11-10T17:53:22.279Z,1041.58
2018-11-10T17:55:24.265Z,1077.75
2018-11-10T17:57:26.268Z,1100.08
2018-11-10T17:59:28.408Z,1116.15
2018-11-10T18:01:30.577Z,1332.78
2018-11-10T18:03:32.532Z,1429.35
2018-11-10T18:05:34.516Z,1339.63
2018-11-10T18:07:36.511Z,1289.20
2018-11-10T18:09:38.521Z,1246.83
2018-11-10T18:11:40.544Z,1211.25
2018-11-10T18:13:42.529Z,1187.58
2018-11-10T18:15:44.538Z,1161.78
2018-11-10T18:17:46.577Z,1116.95
2018-11-10T18:19:48.730Z,1094.45
2018-11-10T18:21:50.758Z,1114.18
2018-11-10T18:23:52.748Z,1091.60
2018-11-10T18:25:54.776Z,1072.75
2018-11-10T18:27:56.779Z,1036.08
2018-11-10T18:29:58.762Z,1039.73
2018-11-10T18:32:00.773Z,1059.13
2018-11-10T18:34:02.777Z,1111.13
2018-11-10T18:36:04.771Z,1193.25
2018-11-10T18:38:06.816Z,1145.50
2018-11-10T18:40:08.919Z,1166.28
2018-11-10T18:42:10.826Z,1261.05
2018-11-10T18:44:12.807Z,1333.88
2018-11-10T18:46:14.834Z,1298.72
2018-11-10T18:48:16.854Z,1253.00
2018-11-10T18:50:18.868Z,1229.55
2018-11-10T18:52:20.933Z,1299.75
2018-11-10T18:54:23.129Z,1310.05
2018-11-10T18:56:25.158Z,1323.63
2018-11-10T18:58:27.167Z,1333.95
2018-11-10T19:00:29.198Z,1325.67
2018-11-10T19:02:31.206Z,1312.30
2018-11-10T19:04:33.217Z,1309.25
2018-11-10T19:06:35.199Z,1270.05
2018-11-10T19:08:37.207Z,1272.85
2018-11-10T19:10:39.224Z,1262.83
2018-11-10T19:12:41.281Z,1251.33
2018-11-10T19:14:43.306Z,1241.15
2018-11-10T19:16:45.341Z,1229.88
2018-11-10T19:18:47.371Z,1195.50
2018-11-10T19:20:49.670Z,1225.48
2018-11-10T19:22:51.727Z,1197.80
2018-11-10T19:24:54.087Z,1187.45
2018-11-10T19:26:56.070Z,1183.88
2018-11-10T19:28:58.118Z,1187.03
2018-11-10T19:31:00.113Z,1185.38
2018-11-10T19:33:02.108Z,1151.88
2018-11-10T19:35:04.117Z,1154.05
2018-11-10T19:37:06.103Z,1158.80
2018-11-10T19:39:08.137Z,1180.50
2018-11-10T19:41:10.154Z,1195.78
2018-11-10T19:43:12.176Z,1231.83
2018-11-10T19:45:14.190Z,1223.90
2018-11-10T19:47:16.202Z,1249.45
2018-11-10T19:49:18.222Z,1235.55
2018-11-10T19:51:20.462Z,1212.15
2018-11-10T19:53:22.274Z,1195.80
2018-11-10T19:55:24.265Z,1193.85
2018-11-10T19:57:26.274Z,1181.83
2018-11-10T19:59:28.270Z,1175.90
2018-11-10T20:01:30.260Z,1193.45
2018-11-10T20:03:32.438Z,1169.68
2018-11-10T20:05:34.443Z,1147.08
2018-11-10T20:07:36.493Z,1147.63
2018-11-10T20:09:38.741Z,1161.88
2018-11-10T20:11:40.734Z,1217.18
2018-11-10T20:13:42.759Z,1253.20
2018-11-10T20:15:44.736Z,1242.88
2018-11-10T20:17:46.732Z,1233.00
2018-11-10T20:19:48.742Z,1190.30
2018-11-10T20:21:50.724Z,1311.78
2018-11-10T20:23:52.762Z,865.95
2018-11-10T20:25:54.750Z,404.98
2018-11-10T20:27:56.724Z,234.62
2018-11-10T20:29:58.769Z,131.45
2018-11-10T20:32:00.774Z,497.80
2018-11-10T20:34:02.773Z,673.75
2018-11-10T20:36:04.767Z,716.88
2018-11-10T20:38:06.745Z,603.17
2018-11-10T20:40:08.780Z,596.58
2018-11-10T20:42:10.768Z,579.25
2018-11-10T20:44:12.782Z,570.12
2018-11-10T20:46:14.763Z,590.67
2018-11-10T20:48:17.453Z,572.02
2018-11-10T20:50:19.469Z,560.78
2018-11-10T20:52:21.464Z,583.12
2018-11-10T20:54:23.458Z,570.73
2018-11-10T20:56:25.471Z,582.88
2018-11-10T20:58:27.442Z,627.70
2018-11-10T21:00:29.471Z,960.33
2018-11-10T21:02:31.455Z,1049.68
2018-11-10T21:04:33.467Z,1068.80
2018-11-10T21:06:35.494Z,1035.63
2018-11-10T21:08:37.470Z,980.72
2018-11-10T21:10:39.479Z,944.60
2018-11-10T21:12:41.502Z,943.43
2018-11-10T21:14:43.459Z,900.83
2018-11-10T21:16:45.493Z,720.55
2018-11-10T21:18:47.499Z,668.97
2018-11-10T21:20:49.504Z,789.32
2018-11-10T21:22:51.493Z,812.42
2018-11-10T21:24:53.505Z,768.85
2018-11-10T21:26:55.505Z,739.78
2018-11-10T21:28:57.543Z,690.38
2018-11-10T21:30:59.511Z,718.27
2018-11-10T21:33:01.531Z,673.95
2018-11-10T21:35:03.557Z,720.77
2018-11-10T21:37:05.549Z,671.37
2018-11-10T21:39:07.585Z,702.52
2018-11-10T21:41:09.551Z,730.75
2018-11-10T21:43:11.565Z,742.92
2018-11-10T21:45:13.551Z,876.30
2018-11-10T21:47:15.544Z,828.37
2018-11-10T21:49:17.612Z,826.30
2018-11-10T21:51:19.575Z,816.55
2018-11-10T21:53:21.570Z,788.40
2018-11-10T21:55:23.661Z,780.77
2018-11-10T21:57:25.618Z,792.37
2018-11-10T21:59:27.614Z,790.25
2018-11-10T22:01:29.632Z,773.92
2018-11-10T22:03:31.627Z,798.85
2018-11-10T22:05:33.674Z,802.58
2018-11-10T22:07:35.697Z,770.50
2018-11-10T22:09:37.776Z,805.72
2018-11-10T22:11:39.737Z,807.83
2018-11-10T22:13:41.717Z,784.80
2018-11-10T22:15:43.793Z,753.38
2018-11-10T22:17:45.824Z,761.23
2018-11-10T22:19:47.805Z,767.15
2018-11-10T22:21:49.800Z,798.80
2018-11-10T22:23:51.785Z,798.10
2018-11-10T22:25:53.788Z,875.65
2018-11-10T22:27:55.752Z,909.62
2018-11-10T22:29:57.765Z,906.35
2018-11-10T22:31:59.749Z,900.83
2018-11-10T22:34:01.748Z,888.52
2018-11-10T22:36:03.776Z,865.35
2018-11-10T22:38:05.780Z,872.98
2018-11-10T22:40:07.756Z,850.73
2018-11-10T22:42:09.769Z,860.62
2018-11-10T22:44:11.771Z,843.10
2018-11-10T22:46:13.803Z,855.83
2018-11-10T22:48:15.790Z,854.20
2018-11-10T22:50:17.755Z,925.53
2018-11-10T22:52:19.772Z,975.55
2018-11-10T22:54:21.838Z,984.22
2018-11-10T22:56:23.832Z,976.30
2018-11-10T22:58:25.878Z,957.02
2018-11-10T23:00:27.864Z,960.75
2018-11-10T23:02:29.828Z,956.50
2018-11-10T23:04:31.853Z,938.42
2018-11-10T23:06:33.844Z,917.33
2018-11-10T23:08:35.833Z,905.72
2018-11-10T23:10:37.834Z,912.35
2018-11-10T23:12:39.844Z,851.98
2018-11-10T23:14:41.819Z,851.22
2018-11-10T23:16:43.804Z,864.17
2018-11-10T23:18:45.809Z,879.45
2018-11-10T23:20:47.822Z,911.73
2018-11-10T23:22:49.856Z,975.42
2018-11-10T23:24:51.825Z,972.60
2018-11-10T23:26:53.808Z,1002.35
2018-11-10T23:28:55.815Z,1022.98
2018-11-10T23:30:57.839Z,977.30
2018-11-10T23:32:59.837Z,984.45
2018-11-10T23:35:01.819Z,960.62
2018-11-10T23:37:03.816Z,940.02
2018-11-10T23:39:05.794Z,939.17
2018-11-10T23:41:07.809Z,951.30
2018-11-10T23:43:09.780Z,935.97
2018-11-10T23:45:11.797Z,935.25
2018-11-10T23:47:13.806Z,916.92
2018-11-10T23:49:15.803Z,923.23
2018-11-10T23:51:17.822Z,937.55
2018-11-10T23:53:19.821Z,979.90
2018-11-10T23:55:21.809Z,992.53
2018-11-10T23:57:23.839Z,1024.20
2018-11-10T23:59:25.853Z,1023.87
